createdAt,value
2019-02-10T00:00:46.820Z,68.24
2019-02-10T00:03:15.769Z,67.93
2019-02-10T00:05:44.854Z,68.08
2019-02-10T00:08:13.642Z,68.39
2019-02-10T00:10:42.115Z,68.24
2019-02-10T00:13:30.168Z,68.44
2019-02-10T00:15:59.073Z,68.41
2019-02-10T00:18:27.560Z,68.33
2019-02-10T00:20:56.387Z,68.43
2019-02-10T00:23:25.533Z,68.44
2019-02-10T00:25:54.225Z,68.28
2019-02-10T00:28:22.670Z,68.21
2019-02-10T00:30:51.370Z,68.25
2019-02-10T00:33:19.832Z,68.25
2019-02-10T00:35:48.249Z,68.60
2019-02-10T00:38:17.333Z,68.48
2019-02-10T00:40:45.767Z,68.59
2019-02-10T00:43:14.218Z,68.62
2019-02-10T00:45:42.976Z,69.19
2019-02-10T00:48:11.456Z,68.86
2019-02-10T00:50:39.913Z,69.01
2019-02-10T00:53:08.358Z,69.05
2019-02-10T00:55:36.785Z,68.99
2019-02-10T00:58:05.244Z,68.73
2019-02-10T01:00:33.934Z,69.29
2019-02-10T01:03:02.366Z,69.39
2019-02-10T01:05:30.811Z,68.84
2019-02-10T01:07:59.256Z,69.20
2019-02-10T01:10:28.907Z,69.32
2019-02-10T01:12:57.380Z,69.13
2019-02-10T01:15:26.173Z,69.40
2019-02-10T01:17:54.605Z,69.56
2019-02-10T01:20:23.276Z,69.72
2019-02-10T01:22:51.781Z,69.70
2019-02-10T01:25:20.278Z,69.52
2019-02-10T01:27:49.050Z,69.71
2019-02-10T01:30:17.501Z,69.88
2019-02-10T01:32:45.953Z,70.22
2019-02-10T01:35:14.440Z,70.15
2019-02-10T01:37:43.929Z,70.05
2019-02-10T01:40:12.627Z,69.97
2019-02-10T01:42:41.067Z,69.92
2019-02-10T01:45:11.845Z,69.97
2019-02-10T01:47:40.289Z,70.14
2019-02-10T01:50:09.835Z,70.31
2019-02-10T01:52:38.531Z,70.48
2019-02-10T01:55:08.361Z,70.63
2019-02-10T01:57:37.121Z,70.60
2019-02-10T02:00:06.814Z,70.57
2019-02-10T02:02:35.234Z,70.15
2019-02-10T02:05:05.285Z,69.94
2019-02-10T02:07:34.010Z,70.11
2019-02-10T02:10:02.458Z,70.32
2019-02-10T02:12:30.881Z,70.23
2019-02-10T02:14:59.645Z,70.19
2019-02-10T02:17:28.416Z,69.99
2019-02-10T02:19:57.090Z,70.26
2019-02-10T02:22:25.810Z,70.48
2019-02-10T02:24:54.255Z,70.73
2019-02-10T02:27:22.976Z,71.12
2019-02-10T02:29:51.943Z,71.38
2019-02-10T02:32:20.427Z,71.55
2019-02-10T02:34:49.167Z,71.73
2019-02-10T02:37:17.590Z,71.67
2019-02-10T02:39:46.506Z,71.82
2019-02-10T02:42:14.932Z,72.03
2019-02-10T02:44:43.953Z,72.17
2019-02-10T02:47:12.398Z,72.30
2019-02-10T02:49:41.145Z,72.44
2019-02-10T02:52:10.240Z,72.41
2019-02-10T02:54:39.236Z,72.35
2019-02-10T02:57:08.035Z,72.41
2019-02-10T02:59:36.468Z,72.02
2019-02-10T03:02:04.922Z,72.06
2019-02-10T03:04:33.686Z,72.02
2019-02-10T03:07:02.115Z,72.35
2019-02-10T03:09:31.148Z,72.01
2019-02-10T03:11:59.595Z,72.32
2019-02-10T03:14:28.283Z,72.05
2019-02-10T03:16:57.032Z,72.10
2019-02-10T03:19:25.461Z,72.24
2019-02-10T03:21:54.579Z,72.07
2019-02-10T03:24:23.264Z,72.09
2019-02-10T03:26:52.351Z,72.37
2019-02-10T03:29:20.787Z,72.64
2019-02-10T03:31:49.825Z,72.50
2019-02-10T03:34:21.333Z,72.40
2019-02-10T03:36:50.280Z,72.07
2019-02-10T03:39:18.766Z,72.36
2019-02-10T03:41:47.823Z,72.43
2019-02-10T03:44:16.640Z,72.64
2019-02-10T03:46:45.974Z,72.99
2019-02-10T03:49:14.414Z,73.12
2019-02-10T03:51:42.928Z,73.33
2019-02-10T03:54:11.731Z,73.27
2019-02-10T03:56:41.004Z,73.43
2019-02-10T03:59:09.613Z,73.66
2019-02-10T04:01:38.504Z,75.00
2019-02-10T04:04:07.771Z,75.26
2019-02-10T04:06:36.211Z,75.39
2019-02-10T04:09:05.416Z,75.77
2019-02-10T04:11:34.351Z,75.96
2019-02-10T04:14:03.198Z,76.49
2019-02-10T04:16:31.662Z,76.51
2019-02-10T04:19:01.215Z,76.48
2019-02-10T04:21:32.212Z,76.63
2019-02-10T04:24:00.688Z,76.39
2019-02-10T04:26:29.253Z,76.49
2019-02-10T04:28:58.014Z,76.85
2019-02-10T04:31:26.675Z,76.30
2019-02-10T04:33:55.791Z,76.65
2019-02-10T04:36:24.209Z,76.81
2019-02-10T04:38:52.919Z,76.83
2019-02-10T04:41:21.637Z,77.18
2019-02-10T04:43:50.484Z,77.49
2019-02-10T04:46:18.925Z,78.31
2019-02-10T04:48:47.686Z,79.17
2019-02-10T04:51:16.112Z,79.69
2019-02-10T04:53:44.559Z,79.41
2019-02-10T04:56:19.298Z,80.52
2019-02-10T04:58:47.832Z,80.41
2019-02-10T05:01:16.357Z,81.49
2019-02-10T05:03:44.806Z,81.79
2019-02-10T05:06:13.519Z,81.70
2019-02-10T05:08:42.191Z,82.26
2019-02-10T05:11:10.630Z,82.65
2019-02-10T05:13:39.312Z,82.63
2019-02-10T05:16:07.741Z,83.01
2019-02-10T05:18:36.477Z,83.16
2019-02-10T05:21:04.946Z,83.80
2019-02-10T05:23:33.710Z,83.97
2019-02-10T05:26:02.873Z,83.92
2019-02-10T05:28:31.309Z,83.23
2019-02-10T05:31:00.026Z,83.97
2019-02-10T05:33:28.812Z,84.55
2019-02-10T05:35:57.682Z,84.01
2019-02-10T05:38:26.117Z,83.34
2019-02-10T05:40:55.467Z,83.25
2019-02-10T05:43:24.279Z,83.35
2019-02-10T05:45:52.910Z,84.11
2019-02-10T05:48:21.350Z,83.35
2019-02-10T05:50:50.545Z,84.41
2019-02-10T05:53:19.206Z,84.73
2019-02-10T05:55:49.520Z,84.37
2019-02-10T05:58:18.254Z,84.57
2019-02-10T06:00:46.730Z,84.57
2019-02-10T06:03:15.417Z,84.62
2019-02-10T06:05:43.853Z,84.46
2019-02-10T06:08:13.630Z,84.84
2019-02-10T06:10:42.392Z,84.99
2019-02-10T06:13:10.947Z,84.95
2019-02-10T06:15:39.701Z,85.22
2019-02-10T06:18:08.131Z,84.85
2019-02-10T06:20:37.031Z,84.57
2019-02-10T06:23:05.847Z,84.95
2019-02-10T06:25:34.570Z,84.88
2019-02-10T06:28:03.298Z,85.03
2019-02-10T06:30:31.760Z,85.64
2019-02-10T06:33:00.461Z,85.98
2019-02-10T06:35:29.171Z,85.70
2019-02-10T06:37:57.686Z,85.49
2019-02-10T06:40:26.819Z,85.75
2019-02-10T06:42:55.575Z,85.84
2019-02-10T06:45:24.836Z,86.19
2019-02-10T06:47:55.458Z,85.83
2019-02-10T06:50:23.896Z,85.40
2019-02-10T06:52:52.317Z,85.09
2019-02-10T06:55:20.828Z,84.94
2019-02-10T06:57:49.572Z,85.28
2019-02-10T07:00:36.174Z,85.52
2019-02-10T07:03:51.574Z,85.86
2019-02-10T07:06:23.313Z,85.76
2019-02-10T07:08:51.739Z,85.85
2019-02-10T07:11:21.090Z,85.79
2019-02-10T07:13:52.381Z,85.77
2019-02-10T07:16:42.102Z,85.07
2019-02-10T07:19:47.359Z,85.20
2019-02-10T07:23:06.904Z,85.19
2019-02-10T07:25:56.227Z,85.41
2019-02-10T07:29:00.667Z,85.43
2019-02-10T07:31:35.840Z,85.42
2019-02-10T07:34:49.788Z,85.21
2019-02-10T07:37:43.290Z,84.79
2019-02-10T07:40:57.642Z,84.86
2019-02-10T07:44:02.297Z,85.30
2019-02-10T07:47:12.379Z,85.98
2019-02-10T07:50:21.973Z,85.73
2019-02-10T07:53:03.489Z,85.69
2019-02-10T07:56:10.131Z,85.79
2019-02-10T07:59:22.858Z,85.60
2019-02-10T08:02:00.263Z,85.50
2019-02-10T08:05:13.266Z,85.45
2019-02-10T08:08:20.448Z,85.67
2019-02-10T08:11:35.772Z,86.24
2019-02-10T08:14:49.161Z,86.38
2019-02-10T08:17:39.353Z,86.54
2019-02-10T08:20:40.536Z,86.40
2019-02-10T08:23:36.145Z,86.30
2019-02-10T08:26:45.636Z,86.26
2019-02-10T08:29:39.039Z,86.07
2019-02-10T08:32:25.118Z,86.20
2019-02-10T08:35:27.904Z,86.26
2019-02-10T08:38:19.014Z,86.10
2019-02-10T08:41:47.192Z,86.03
2019-02-10T08:44:34.039Z,85.63
2019-02-10T08:47:42.847Z,85.90
2019-02-10T08:50:23.227Z,85.95
2019-02-10T08:53:01.968Z,85.52
2019-02-10T08:55:30.385Z,84.99
2019-02-10T08:57:58.838Z,85.78
2019-02-10T09:00:27.248Z,86.00
2019-02-10T09:02:55.685Z,85.91
2019-02-10T09:05:24.635Z,85.50
2019-02-10T09:07:53.552Z,85.47
2019-02-10T09:10:22.298Z,84.93
2019-02-10T09:12:51.378Z,85.45
2019-02-10T09:15:19.794Z,85.60
2019-02-10T09:17:48.240Z,85.85
2019-02-10T09:20:16.666Z,86.16
2019-02-10T09:22:45.388Z,85.91
2019-02-10T09:25:13.828Z,86.14
2019-02-10T09:27:42.282Z,85.50
2019-02-10T09:30:11.620Z,85.42
2019-02-10T09:32:40.358Z,85.59
2019-02-10T09:35:08.862Z,85.76
2019-02-10T09:37:37.286Z,85.89
2019-02-10T09:40:06.048Z,85.66
2019-02-10T09:42:34.860Z,85.74
2019-02-10T09:45:03.300Z,86.10
2019-02-10T09:47:32.091Z,86.12
2019-02-10T09:50:00.546Z,85.98
2019-02-10T09:52:29.028Z,85.86
2019-02-10T09:54:57.846Z,85.62
2019-02-10T09:57:26.954Z,85.91
2019-02-10T09:59:56.004Z,85.12
2019-02-10T10:02:24.452Z,85.91
2019-02-10T10:04:53.374Z,86.09
2019-02-10T10:07:21.800Z,85.42
2019-02-10T10:09:50.293Z,85.23
2019-02-10T10:12:19.433Z,85.08
2019-02-10T10:14:48.429Z,85.24
2019-02-10T10:17:17.420Z,84.92
2019-02-10T10:19:46.214Z,84.87
2019-02-10T10:22:16.922Z,84.91
2019-02-10T10:24:50.470Z,84.89
2019-02-10T10:27:15.996Z,84.62
2019-02-10T10:29:44.713Z,84.62
2019-02-10T10:32:13.818Z,84.88
2019-02-10T10:34:42.911Z,85.06
2019-02-10T10:37:11.677Z,85.00
2019-02-10T10:39:40.154Z,85.22
2019-02-10T10:42:09.192Z,85.72
2019-02-10T10:44:37.724Z,85.56
2019-02-10T10:47:06.615Z,85.67
2019-02-10T10:49:35.410Z,85.61
2019-02-10T10:52:03.854Z,85.51
2019-02-10T10:54:32.300Z,85.16
2019-02-10T10:57:00.743Z,85.59
2019-02-10T10:59:32.258Z,85.34
2019-02-10T11:02:00.957Z,85.21
2019-02-10T11:04:29.689Z,84.86
2019-02-10T11:06:58.116Z,84.93
2019-02-10T11:09:26.846Z,85.12
2019-02-10T11:11:55.987Z,85.17
2019-02-10T11:14:24.687Z,85.68
2019-02-10T11:16:53.128Z,85.47
2019-02-10T11:19:21.565Z,85.64
2019-02-10T11:21:50.022Z,85.69
2019-02-10T11:24:18.450Z,85.72
2019-02-10T11:26:46.905Z,85.75
2019-02-10T11:29:15.651Z,86.30
2019-02-10T11:31:44.092Z,86.23
2019-02-10T11:34:12.816Z,86.78
2019-02-10T11:36:41.541Z,86.67
2019-02-10T11:39:10.299Z,87.01
2019-02-10T11:41:39.065Z,87.31
2019-02-10T11:44:07.765Z,87.46
2019-02-10T11:46:36.222Z,87.57
2019-02-10T11:49:04.930Z,87.73
2019-02-10T11:51:33.621Z,87.79
2019-02-10T11:54:03.660Z,87.68
2019-02-10T11:56:32.098Z,87.71
2019-02-10T11:59:01.107Z,87.76
2019-02-10T12:01:29.545Z,88.05
2019-02-10T12:03:57.974Z,88.31
2019-02-10T12:06:26.689Z,88.18
2019-02-10T12:08:55.142Z,88.08
2019-02-10T12:11:23.601Z,88.12
2019-02-10T12:13:52.297Z,88.04
2019-02-10T12:16:21.697Z,87.83
2019-02-10T12:18:50.145Z,87.87
2019-02-10T12:21:18.591Z,87.94
2019-02-10T12:23:47.023Z,87.88
2019-02-10T12:26:15.460Z,87.90
2019-02-10T12:28:43.893Z,87.89
2019-02-10T12:31:12.349Z,88.03
2019-02-10T12:33:40.959Z,87.96
2019-02-10T12:36:09.694Z,87.91
2019-02-10T12:38:38.143Z,88.12
2019-02-10T12:41:06.592Z,87.80
2019-02-10T12:43:35.593Z,87.94
2019-02-10T12:46:04.265Z,87.84
2019-02-10T12:48:33.783Z,88.12
2019-02-10T12:51:02.299Z,88.15
2019-02-10T12:53:31.067Z,88.14
2019-02-10T12:55:59.806Z,88.16
2019-02-10T12:58:28.259Z,88.26
2019-02-10T13:00:57.017Z,88.31
2019-02-10T13:03:25.473Z,88.12
2019-02-10T13:05:53.903Z,88.04
2019-02-10T13:08:22.378Z,88.13
2019-02-10T13:10:51.143Z,88.02
2019-02-10T13:13:19.934Z,88.28
2019-02-10T13:15:48.353Z,88.18
2019-02-10T13:18:17.432Z,87.97
2019-02-10T13:20:45.885Z,87.79
2019-02-10T13:23:14.324Z,87.89
2019-02-10T13:25:43.171Z,87.95
2019-02-10T13:28:12.059Z,87.86
2019-02-10T13:30:40.942Z,87.64
2019-02-10T13:33:09.383Z,87.55
2019-02-10T13:35:38.523Z,87.30
2019-02-10T13:38:07.018Z,87.24
2019-02-10T13:40:35.439Z,87.08
2019-02-10T13:43:03.893Z,87.41
2019-02-10T13:45:32.652Z,87.19
2019-02-10T13:48:01.207Z,86.82
2019-02-10T13:50:29.914Z,87.00
2019-02-10T13:52:58.396Z,87.11
2019-02-10T13:55:27.141Z,86.92
2019-02-10T13:57:55.583Z,86.89
2019-02-10T14:00:24.040Z,86.53
2019-02-10T14:02:52.764Z,86.74
2019-02-10T14:05:21.214Z,86.48
2019-02-10T14:07:51.052Z,86.10
2019-02-10T14:10:25.583Z,85.46
2019-02-10T14:12:51.262Z,85.10
2019-02-10T14:15:20.044Z,84.73
2019-02-10T14:17:48.829Z,84.53
2019-02-10T14:20:17.257Z,84.08
2019-02-10T14:22:45.731Z,84.65
2019-02-10T14:25:14.179Z,83.87
2019-02-10T14:27:42.919Z,83.77
2019-02-10T14:30:13.050Z,83.43
2019-02-10T14:32:41.496Z,84.18
2019-02-10T14:35:09.960Z,83.85
2019-02-10T14:37:38.559Z,84.64
2019-02-10T14:40:07.077Z,83.98
2019-02-10T14:42:35.894Z,84.17
2019-02-10T14:45:04.787Z,83.79
2019-02-10T14:47:33.217Z,83.68
2019-02-10T14:50:01.751Z,83.79
2019-02-10T14:52:30.174Z,84.32
2019-02-10T14:54:58.878Z,84.03
2019-02-10T14:57:27.610Z,83.84
2019-02-10T14:59:56.567Z,83.84
2019-02-10T15:02:24.996Z,83.43
2019-02-10T15:04:53.451Z,82.72
2019-02-10T15:07:25.294Z,83.68
2019-02-10T15:09:52.066Z,83.34
2019-02-10T15:12:20.527Z,83.72
2019-02-10T15:14:48.973Z,83.38
2019-02-10T15:17:17.758Z,82.73
2019-02-10T15:19:46.788Z,83.38
2019-02-10T15:22:15.472Z,81.99
2019-02-10T15:24:44.247Z,82.09
2019-02-10T15:27:13.020Z,81.71
2019-02-10T15:29:41.743Z,82.47
2019-02-10T15:32:16.650Z,82.39
2019-02-10T15:34:41.361Z,82.31
2019-02-10T15:37:10.313Z,82.88
2019-02-10T15:39:38.748Z,83.25
2019-02-10T15:42:09.393Z,82.42
2019-02-10T15:44:37.945Z,82.23
2019-02-10T15:47:06.631Z,82.26
2019-02-10T15:49:35.391Z,82.39
2019-02-10T15:52:04.131Z,81.69
2019-02-10T15:54:32.568Z,81.59
2019-02-10T15:57:00.994Z,82.73
2019-02-10T15:59:29.750Z,81.87
2019-02-10T16:01:58.518Z,81.66
2019-02-10T16:04:27.285Z,82.08
2019-02-10T16:06:56.526Z,82.65
2019-02-10T16:09:25.019Z,82.29
2019-02-10T16:11:53.717Z,82.86
2019-02-10T16:14:22.153Z,82.34
2019-02-10T16:16:50.583Z,82.66
2019-02-10T16:19:19.369Z,82.79
2019-02-10T16:21:47.826Z,82.73
2019-02-10T16:24:16.249Z,83.21
2019-02-10T16:26:44.694Z,83.32
2019-02-10T16:29:13.115Z,83.38
2019-02-10T16:31:42.053Z,84.25
2019-02-10T16:34:10.714Z,83.64
2019-02-10T16:36:39.438Z,84.15
2019-02-10T16:39:12.183Z,84.84
2019-02-10T16:41:40.673Z,84.22
2019-02-10T16:44:09.381Z,84.33
2019-02-10T16:46:38.059Z,84.11
2019-02-10T16:49:06.499Z,85.06
2019-02-10T16:51:35.562Z,85.28
2019-02-10T16:54:04.038Z,85.52
2019-02-10T16:56:32.694Z,85.75
2019-02-10T16:59:03.168Z,85.48
2019-02-10T17:01:32.239Z,85.01
2019-02-10T17:04:00.738Z,84.50
2019-02-10T17:06:29.482Z,84.62
2019-02-10T17:08:57.911Z,84.83
2019-02-10T17:11:27.032Z,84.25
2019-02-10T17:13:55.472Z,84.54
2019-02-10T17:16:24.625Z,84.26
2019-02-10T17:18:53.323Z,84.31
2019-02-10T17:21:21.762Z,83.62
2019-02-10T17:23:50.465Z,84.11
2019-02-10T17:26:19.480Z,83.90
2019-02-10T17:28:48.168Z,83.30
2019-02-10T17:31:17.161Z,83.60
2019-02-10T17:33:45.586Z,83.29
2019-02-10T17:36:14.021Z,83.52
2019-02-10T17:38:42.488Z,82.90
2019-02-10T17:41:22.783Z,82.74
2019-02-10T17:43:50.610Z,81.97
2019-02-10T17:46:19.053Z,83.09
2019-02-10T17:48:47.535Z,81.87
2019-02-10T17:51:16.015Z,83.02
2019-02-10T17:53:44.468Z,81.64
2019-02-10T17:56:12.889Z,82.46
2019-02-10T17:58:41.327Z,81.88
2019-02-10T18:01:09.753Z,82.54
2019-02-10T18:03:38.728Z,83.26
2019-02-10T18:06:07.152Z,82.55
2019-02-10T18:08:35.942Z,82.37
2019-02-10T18:11:04.393Z,83.09
2019-02-10T18:13:32.839Z,83.54
2019-02-10T18:16:17.652Z,84.24
2019-02-10T18:18:53.345Z,84.91
2019-02-10T18:21:43.120Z,84.62
2019-02-10T18:24:21.598Z,84.16
2019-02-10T18:27:06.449Z,84.47
2019-02-10T18:30:00.862Z,85.19
2019-02-10T18:32:47.165Z,84.73
2019-02-10T18:35:42.282Z,84.79
2019-02-10T18:38:23.794Z,85.76
2019-02-10T18:41:11.280Z,86.27
2019-02-10T18:44:01.532Z,86.12
2019-02-10T18:46:52.174Z,86.39
2019-02-10T18:49:38.777Z,86.45
2019-02-10T18:52:22.401Z,86.42
2019-02-10T18:55:18.117Z,86.19
2019-02-10T18:58:05.864Z,85.73
2019-02-10T19:00:40.615Z,84.57
2019-02-10T19:03:32.535Z,84.03
2019-02-10T19:06:09.152Z,84.71
2019-02-10T19:09:03.829Z,84.18
2019-02-10T19:12:01.422Z,83.16
2019-02-10T19:14:51.729Z,83.15
2019-02-10T19:17:39.481Z,84.44
2019-02-10T19:20:36.157Z,85.15
2019-02-10T19:23:41.977Z,85.16
2019-02-10T19:26:25.716Z,85.30
2019-02-10T19:29:32.138Z,85.63
2019-02-10T19:32:18.930Z,85.85
2019-02-10T19:35:00.918Z,85.85
2019-02-10T19:37:47.393Z,86.26
2019-02-10T19:40:23.972Z,85.56
2019-02-10T19:43:30.336Z,85.41
2019-02-10T19:46:16.461Z,85.91
2019-02-10T19:49:03.171Z,85.95
2019-02-10T19:51:50.968Z,85.74
2019-02-10T19:54:28.157Z,86.24
2019-02-10T19:57:28.260Z,86.10
2019-02-10T20:00:34.440Z,85.05
2019-02-10T20:03:09.704Z,85.95
2019-02-10T20:05:57.693Z,85.85
2019-02-10T20:08:43.358Z,86.15
2019-02-10T20:11:33.445Z,85.95
2019-02-10T20:14:17.138Z,86.61
2019-02-10T20:17:10.715Z,86.82
2019-02-10T20:19:50.979Z,86.63
2019-02-10T20:22:24.962Z,86.68
2019-02-10T20:25:01.022Z,86.75
2019-02-10T20:28:00.536Z,86.79
2019-02-10T20:30:43.794Z,86.67
2019-02-10T20:33:21.045Z,87.06
2019-02-10T20:36:09.976Z,87.12
2019-02-10T20:39:06.660Z,87.24
2019-02-10T20:41:48.587Z,87.31
2019-02-10T20:44:36.886Z,87.16
2019-02-10T20:47:16.363Z,87.15
2019-02-10T20:50:04.380Z,87.07
2019-02-10T20:52:46.526Z,87.03
2019-02-10T20:55:25.321Z,87.15
2019-02-10T20:58:12.770Z,87.25
2019-02-10T21:00:59.431Z,87.38
2019-02-10T21:03:45.613Z,87.42
2019-02-10T21:06:31.889Z,87.55
2019-02-10T21:09:21.709Z,87.27
2019-02-10T21:12:05.606Z,87.50
2019-02-10T21:14:53.047Z,87.49
2019-02-10T21:17:39.113Z,87.13
2019-02-10T21:20:29.780Z,86.79
2019-02-10T21:23:23.734Z,87.13
2019-02-10T21:26:01.790Z,87.42
2019-02-10T21:28:47.951Z,87.08
2019-02-10T21:31:34.574Z,87.10
2019-02-10T21:34:31.596Z,87.50
2019-02-10T21:37:19.420Z,87.83
2019-02-10T21:40:15.870Z,87.67
2019-02-10T21:42:52.834Z,87.49
2019-02-10T21:45:46.585Z,87.73
2019-02-10T21:48:33.982Z,87.72
2019-02-10T21:51:02.736Z,87.68
2019-02-10T21:53:32.641Z,87.62
2019-02-10T21:56:01.753Z,87.68
2019-02-10T21:58:30.726Z,87.78
2019-02-10T22:00:59.542Z,87.77
2019-02-10T22:03:28.113Z,87.68
2019-02-10T22:05:57.088Z,87.60
2019-02-10T22:08:26.006Z,87.99
2019-02-10T22:10:54.980Z,88.00
2019-02-10T22:13:23.870Z,87.88
2019-02-10T22:15:53.369Z,87.97
2019-02-10T22:18:21.891Z,88.28
2019-02-10T22:20:50.397Z,88.51
2019-02-10T22:23:18.857Z,88.22
2019-02-10T22:25:47.352Z,88.12
2019-02-10T22:28:15.800Z,88.31
2019-02-10T22:30:44.225Z,88.36
2019-02-10T22:33:13.037Z,88.20
2019-02-10T22:35:41.463Z,87.79
2019-02-10T22:38:10.326Z,87.73
2019-02-10T22:40:39.061Z,87.75
2019-02-10T22:43:07.683Z,87.73
2019-02-10T22:45:36.673Z,87.96
2019-02-10T22:48:05.181Z,88.04
2019-02-10T22:50:35.294Z,88.17
2019-02-10T22:53:03.799Z,87.94
2019-02-10T22:55:32.316Z,88.10
2019-02-10T22:58:00.746Z,87.99
2019-02-10T23:00:47.012Z,87.82
2019-02-10T23:03:16.383Z,87.67
2019-02-10T23:05:44.935Z,87.59
2019-02-10T23:08:13.752Z,87.74
2019-02-10T23:10:42.271Z,88.01
2019-02-10T23:13:11.364Z,87.97
2019-02-10T23:15:39.793Z,87.87
2019-02-10T23:18:08.224Z,87.99
2019-02-10T23:20:36.647Z,88.17
2019-02-10T23:23:05.389Z,88.26
2019-02-10T23:25:33.885Z,88.29
2019-02-10T23:28:02.862Z,88.40
2019-02-10T23:30:31.580Z,88.43
2019-02-10T23:33:00.009Z,88.48
2019-02-10T23:35:28.578Z,88.56
2019-02-10T23:37:57.003Z,88.64
2019-02-10T23:40:25.635Z,88.54
2019-02-10T23:43:01.728Z,88.46
2019-02-10T23:45:24.888Z,88.49
2019-02-10T23:47:53.576Z,88.63
2019-02-10T23:50:22.564Z,88.87
2019-02-10T23:52:51.256Z,88.80
2019-02-10T23:55:19.824Z,88.81
2019-02-10T23:57:48.586Z,88.72
